sensor_id;sensor_type;location;lat;lon;timestamp;temperature;humidity
65040;HTU21D;51606;45.000;38.612;2023-03-02T05:29:04;6.41;63.61
65040;HTU21D;51606;45.000;38.612;2023-03-02T05:31:37;6.14;64.09
65040;HTU21D;51606;45.000;38.612;2023-03-02T05:34:06;6.01;64.24
65040;HTU21D;51606;45.000;38.612;2023-03-02T05:36:33;5.80;64.20
65040;HTU21D;51606;45.000;38.612;2023-03-02T05:39:00;5.63;64.59
65040;HTU21D;51606;45.000;38.612;2023-03-02T05:41:26;5.54;64.65
65040;HTU21D;51606;45.000;38.612;2023-03-02T05:43:53;5.43;64.74
65040;HTU21D;51606;45.000;38.612;2023-03-02T05:46:19;5.35;64.90
65040;HTU21D;51606;45.000;38.612;2023-03-02T05:48:46;5.33;64.98
65040;HTU21D;51606;45.000;38.612;2023-03-02T05:51:12;5.35;64.94
65040;HTU21D;51606;45.000;38.612;2023-03-02T05:53:38;5.31;64.96
65040;HTU21D;51606;45.000;38.612;2023-03-02T05:56:06;5.37;64.98
65040;HTU21D;51606;45.000;38.612;2023-03-02T05:58:32;5.35;64.85
65040;HTU21D;51606;45.000;38.612;2023-03-02T06:00:59;5.18;64.92
65040;HTU21D;51606;45.000;38.612;2023-03-02T06:03:26;5.04;65.20
65040;HTU21D;51606;45.000;38.612;2023-03-02T06:05:52;5.08;65.25
65040;HTU21D;51606;45.000;38.612;2023-03-02T06:08:19;5.10;65.14
65040;HTU21D;51606;45.000;38.612;2023-03-02T06:10:47;5.19;65.17
65040;HTU21D;51606;45.000;38.612;2023-03-02T06:13:15;5.38;64.93
65040;HTU21D;51606;45.000;38.612;2023-03-02T06:15:42;5.52;64.75
65040;HTU21D;51606;45.000;38.612;2023-03-02T06:18:08;5.53;64.57
65040;HTU21D;51606;45.000;38.612;2023-03-02T06:20:37;5.47;64.68
65040;HTU21D;51606;45.000;38.612;2023-03-02T06:23:04;5.40;64.78
65040;HTU21D;51606;45.000;38.612;2023-03-02T06:25:30;5.31;64.90
65040;HTU21D;51606;45.000;38.612;2023-03-02T06:27:57;5.25;65.26
65040;HTU21D;51606;45.000;38.612;2023-03-02T06:30:24;5.42;65.07
65040;HTU21D;51606;45.000;38.612;2023-03-02T06:32:52;5.65;64.91
65040;HTU21D;51606;45.000;38.612;2023-03-02T06:35:18;5.82;64.68
65040;HTU21D;51606;45.000;38.612;2023-03-02T06:37:48;5.84;64.53
65040;HTU21D;51606;45.000;38.612;2023-03-02T06:40:14;5.84;64.66
65040;HTU21D;51606;45.000;38.612;2023-03-02T06:42:41;5.83;64.70
65040;HTU21D;51606;45.000;38.612;2023-03-02T06:45:08;5.80;64.76
65040;HTU21D;51606;45.000;38.612;2023-03-02T07:03:40;6.11;64.85
65040;HTU21D;51606;45.000;38.612;2023-03-02T07:06:07;6.24;64.76
65040;HTU21D;51606;45.000;38.612;2023-03-02T07:08:33;6.33;65.04
65040;HTU21D;51606;45.000;38.612;2023-03-02T07:11:04;6.37;65.04
65040;HTU21D;51606;45.000;38.612;2023-03-02T07:13:31;6.40;65.10
65040;HTU21D;51606;45.000;38.612;2023-03-02T07:15:57;6.42;65.03
65040;HTU21D;51606;45.000;38.612;2023-03-02T07:18:24;6.50;64.98
65040;HTU21D;51606;45.000;38.612;2023-03-02T07:20:50;6.54;65.00
65040;HTU21D;51606;45.000;38.612;2023-03-02T07:23:16;6.64;64.94
65040;HTU21D;51606;45.000;38.612;2023-03-02T07:25:42;6.76;64.98
65040;HTU21D;51606;45.000;38.612;2023-03-02T07:28:09;6.97;64.92
65040;HTU21D;51606;45.000;38.612;2023-03-02T07:30:35;7.15;64.74
65040;HTU21D;51606;45.000;38.612;2023-03-02T07:33:02;7.41;64.66
65040;HTU21D;51606;45.000;38.612;2023-03-02T07:35:28;7.78;64.56
65040;HTU21D;51606;45.000;38.612;2023-03-02T07:37:54;8.30;64.40
65040;HTU21D;51606;45.000;38.612;2023-03-02T07:40:20;8.78;63.99
65040;HTU21D;51606;45.000;38.612;2023-03-02T07:42:47;9.07;63.75
65040;HTU21D;51606;45.000;38.612;2023-03-02T07:45:14;9.18;63.61
65040;HTU21D;51606;45.000;38.612;2023-03-02T07:47:42;9.15;63.50
65040;HTU21D;51606;45.000;38.612;2023-03-02T07:50:08;9.08;63.64
65040;HTU21D;51606;45.000;38.612;2023-03-02T07:52:35;9.09;63.75
65040;HTU21D;51606;45.000;38.612;2023-03-02T07:55:01;9.08;63.50
65040;HTU21D;51606;45.000;38.612;2023-03-02T07:57:28;9.07;63.61
65040;HTU21D;51606;45.000;38.612;2023-03-02T07:59:54;9.06;63.53
65040;HTU21D;51606;45.000;38.612;2023-03-02T08:02:21;9.07;63.56
65040;HTU21D;51606;45.000;38.612;2023-03-02T08:04:50;9.12;63.54
65040;HTU21D;51606;45.000;38.612;2023-03-02T08:07:17;9.24;63.43
65040;HTU21D;51606;45.000;38.612;2023-03-02T08:09:44;9.35;63.31
65040;HTU21D;51606;45.000;38.612;2023-03-02T08:12:10;9.49;63.11
65040;HTU21D;51606;45.000;38.612;2023-03-02T08:14:37;9.75;62.94
65040;HTU21D;51606;45.000;38.612;2023-03-02T08:17:06;10.03;62.58
65040;HTU21D;51606;45.000;38.612;2023-03-02T08:19:33;10.27;62.55
65040;HTU21D;51606;45.000;38.612;2023-03-02T08:22:00;10.41;62.26
65040;HTU21D;51606;45.000;38.612;2023-03-02T08:24:27;10.55;62.50
65040;HTU21D;51606;45.000;38.612;2023-03-02T08:26:54;10.78;62.35
65040;HTU21D;51606;45.000;38.612;2023-03-02T08:29:20;11.23;62.29
65040;HTU21D;51606;45.000;38.612;2023-03-02T08:31:46;11.60;61.81
65040;HTU21D;51606;45.000;38.612;2023-03-02T08:34:13;11.87;61.42
65040;HTU21D;51606;45.000;38.612;2023-03-02T08:36:39;11.76;61.04
65040;HTU21D;51606;45.000;38.612;2023-03-02T08:39:08;11.85;61.60
65040;HTU21D;51606;45.000;38.612;2023-03-02T08:41:34;12.56;61.60
65040;HTU21D;51606;45.000;38.612;2023-03-02T08:44:01;13.44;61.14
65040;HTU21D;51606;45.000;38.612;2023-03-02T08:46:28;13.39;59.51
65040;HTU21D;51606;45.000;38.612;2023-03-02T08:48:55;12.86;60.18
65040;HTU21D;51606;45.000;38.612;2023-03-02T08:51:23;12.80;60.89
65040;HTU21D;51606;45.000;38.612;2023-03-02T08:53:51;13.49;60.74
65040;HTU21D;51606;45.000;38.612;2023-03-02T08:56:21;14.27;59.84
65040;HTU21D;51606;45.000;38.612;2023-03-02T08:58:48;14.72;58.56
65040;HTU21D;51606;45.000;38.612;2023-03-02T09:01:18;14.62;57.48
65040;HTU21D;51606;45.000;38.612;2023-03-02T09:03:45;13.65;56.76
65040;HTU21D;51606;45.000;38.612;2023-03-02T09:06:12;12.64;58.02
65040;HTU21D;51606;45.000;38.612;2023-03-02T09:08:40;11.79;58.74
65040;HTU21D;51606;45.000;38.612;2023-03-02T09:11:06;11.04;58.82
65040;HTU21D;51606;45.000;38.612;2023-03-02T09:13:33;10.51;58.97
65040;HTU21D;51606;45.000;38.612;2023-03-02T09:16:00;10.10;58.88
65040;HTU21D;51606;45.000;38.612;2023-03-02T09:18:28;9.88;59.09
65040;HTU21D;51606;45.000;38.612;2023-03-02T09:20:56;9.75;58.93
65040;HTU21D;51606;45.000;38.612;2023-03-02T09:23:23;9.57;58.71
65040;HTU21D;51606;45.000;38.612;2023-03-02T09:25:51;9.38;58.57
65040;HTU21D;51606;45.000;38.612;2023-03-02T09:28:18;9.17;58.35
65040;HTU21D;51606;45.000;38.612;2023-03-02T09:30:51;8.97;58.32
65040;HTU21D;51606;45.000;38.612;2023-03-02T09:33:19;8.77;58.27
65040;HTU21D;51606;45.000;38.612;2023-03-02T09:35:45;8.73;58.40
65040;HTU21D;51606;45.000;38.612;2023-03-02T09:38:13;8.76;58.22
65040;HTU21D;51606;45.000;38.612;2023-03-02T09:43:42;8.82;57.72
65040;HTU21D;51606;45.000;38.612;2023-03-02T09:51:42;9.05;57.25
65040;HTU21D;51606;45.000;38.612;2023-03-02T09:54:20;9.70;57.13
65040;HTU21D;51606;45.000;38.612;2023-03-02T09:56:52;10.56;57.71
65040;HTU21D;51606;45.000;38.612;2023-03-02T10:04:53;12.05;56.52
65040;HTU21D;51606;45.000;38.612;2023-03-02T10:07:31;12.02;55.88
65040;HTU21D;51606;45.000;38.612;2023-03-02T10:13:09;12.13;55.16
65040;HTU21D;51606;45.000;38.612;2023-03-02T10:18:36;11.85;55.35
65040;HTU21D;51606;45.000;38.612;2023-03-02T10:26:51;11.49;55.42
65040;HTU21D;51606;45.000;38.612;2023-03-02T10:29:55;11.30;54.79
65040;HTU21D;51606;45.000;38.612;2023-03-02T10:32:34;11.07;54.95
65040;HTU21D;51606;45.000;38.612;2023-03-02T10:35:26;10.94;55.07
65040;HTU21D;51606;45.000;38.612;2023-03-02T10:38:11;10.68;54.23
65040;HTU21D;51606;45.000;38.612;2023-03-02T10:40:50;10.41;54.46
65040;HTU21D;51606;45.000;38.612;2023-03-02T10:46:05;10.08;54.89
65040;HTU21D;51606;45.000;38.612;2023-03-02T10:51:28;9.91;54.49
65040;HTU21D;51606;45.000;38.612;2023-03-02T10:56:32;9.82;54.47
65040;HTU21D;51606;45.000;38.612;2023-03-02T10:58:58;9.79;54.17
65040;HTU21D;51606;45.000;38.612;2023-03-02T11:01:30;9.68;54.19
65040;HTU21D;51606;45.000;38.612;2023-03-02T11:03:59;9.55;54.36
65040;HTU21D;51606;45.000;38.612;2023-03-02T11:06:27;9.51;54.62
65040;HTU21D;51606;45.000;38.612;2023-03-02T11:09:04;9.46;54.68
65040;HTU21D;51606;45.000;38.612;2023-03-02T11:11:31;9.39;54.66
65040;HTU21D;51606;45.000;38.612;2023-03-02T11:14:13;9.32;54.75
65040;HTU21D;51606;45.000;38.612;2023-03-02T11:16:41;9.26;54.83
65040;HTU21D;51606;45.000;38.612;2023-03-02T11:19:18;9.20;54.78
65040;HTU21D;51606;45.000;38.612;2023-03-02T11:24:28;9.10;54.87
65040;HTU21D;51606;45.000;38.612;2023-03-02T11:40:59;8.81;54.67
65040;HTU21D;51606;45.000;38.612;2023-03-02T11:43:28;8.85;54.68
65040;HTU21D;51606;45.000;38.612;2023-03-02T11:46:01;8.87;54.68
65040;HTU21D;51606;45.000;38.612;2023-03-02T11:48:34;8.88;54.75
65040;HTU21D;51606;45.000;38.612;2023-03-02T11:51:26;8.93;54.70
65040;HTU21D;51606;45.000;38.612;2023-03-02T11:53:59;8.94;54.54
65040;HTU21D;51606;45.000;38.612;2023-03-02T11:56:29;8.92;54.69
65040;HTU21D;51606;45.000;38.612;2023-03-02T11:58:59;8.87;54.75
65040;HTU21D;51606;45.000;38.612;2023-03-02T12:01:27;8.90;54.89
65040;HTU21D;51606;45.000;38.612;2023-03-02T12:06:51;9.01;54.66
65040;HTU21D;51606;45.000;38.612;2023-03-02T12:14:43;9.06;54.94
65040;HTU21D;51606;45.000;38.612;2023-03-02T12:20:06;9.00;55.00
65040;HTU21D;51606;45.000;38.612;2023-03-02T12:22:36;9.03;54.80
65040;HTU21D;51606;45.000;38.612;2023-03-02T12:27:46;9.01;54.85
65040;HTU21D;51606;45.000;38.612;2023-03-02T12:33:04;8.91;54.91
65040;HTU21D;51606;45.000;38.612;2023-03-02T12:35:32;8.92;54.94
65040;HTU21D;51606;45.000;38.612;2023-03-02T12:38:05;8.88;55.00
65040;HTU21D;51606;45.000;38.612;2023-03-02T12:43:35;8.75;54.61
65040;HTU21D;51606;45.000;38.612;2023-03-02T12:51:29;8.57;54.78
65040;HTU21D;51606;45.000;38.612;2023-03-02T12:54:12;8.47;54.83
65040;HTU21D;51606;45.000;38.612;2023-03-02T12:56:39;8.42;54.97
65040;HTU21D;51606;45.000;38.612;2023-03-02T12:59:06;8.43;55.10
65040;HTU21D;51606;45.000;38.612;2023-03-02T13:01:33;8.47;55.07
65040;HTU21D;51606;45.000;38.612;2023-03-02T13:03:59;8.48;55.01
65040;HTU21D;51606;45.000;38.612;2023-03-02T13:06:30;8.47;54.87
65040;HTU21D;51606;45.000;38.612;2023-03-02T13:08:58;8.46;54.85
65040;HTU21D;51606;45.000;38.612;2023-03-02T13:11:33;8.41;54.75
65040;HTU21D;51606;45.000;38.612;2023-03-02T13:14:12;8.33;54.94
65040;HTU21D;51606;45.000;38.612;2023-03-02T13:16:56;8.26;55.11
65040;HTU21D;51606;45.000;38.612;2023-03-02T13:19:24;8.19;55.24
65040;HTU21D;51606;45.000;38.612;2023-03-02T13:21:51;8.09;55.34
65040;HTU21D;51606;45.000;38.612;2023-03-02T13:24:25;7.96;55.31
65040;HTU21D;51606;45.000;38.612;2023-03-02T13:26:55;7.76;55.45
65040;HTU21D;51606;45.000;38.612;2023-03-02T13:29:26;7.58;55.61
65040;HTU21D;51606;45.000;38.612;2023-03-02T13:31:53;7.41;55.71
65040;HTU21D;51606;45.000;38.612;2023-03-02T13:34:22;7.24;55.97
65040;HTU21D;51606;45.000;38.612;2023-03-02T13:36:49;7.14;56.11
65040;HTU21D;51606;45.000;38.612;2023-03-02T13:39:27;7.08;56.13
65040;HTU21D;51606;45.000;38.612;2023-03-02T13:41:55;7.00;56.12
65040;HTU21D;51606;45.000;38.612;2023-03-02T13:44:32;6.91;56.14
65040;HTU21D;51606;45.000;38.612;2023-03-02T13:47:00;6.79;56.19
65040;HTU21D;51606;45.000;38.612;2023-03-02T13:49:31;6.68;56.26
65040;HTU21D;51606;45.000;38.612;2023-03-02T13:52:06;6.58;56.37
65040;HTU21D;51606;45.000;38.612;2023-03-02T13:54:42;6.46;56.45
65040;HTU21D;51606;45.000;38.612;2023-03-02T13:57:20;6.37;56.55
65040;HTU21D;51606;45.000;38.612;2023-03-02T13:59:50;6.24;56.64
65040;HTU21D;51606;45.000;38.612;2023-03-02T14:02:26;6.14;56.72
65040;HTU21D;51606;45.000;38.612;2023-03-02T14:04:53;6.01;56.81
65040;HTU21D;51606;45.000;38.612;2023-03-02T14:07:20;5.91;56.93
65040;HTU21D;51606;45.000;38.612;2023-03-02T14:09:47;5.78;57.06
65040;HTU21D;51606;45.000;38.612;2023-03-02T14:12:26;5.68;57.10
65040;HTU21D;51606;45.000;38.612;2023-03-02T14:14:56;5.57;57.18
65040;HTU21D;51606;45.000;38.612;2023-03-02T14:17:24;5.48;57.28
65040;HTU21D;51606;45.000;38.612;2023-03-02T14:19:52;5.38;57.32
65040;HTU21D;51606;45.000;38.612;2023-03-02T14:22:25;5.27;57.40
65040;HTU21D;51606;45.000;38.612;2023-03-02T14:24:52;5.18;57.48
65040;HTU21D;51606;45.000;38.612;2023-03-02T14:27:19;5.08;57.51
65040;HTU21D;51606;45.000;38.612;2023-03-02T14:29:46;4.95;57.64
65040;HTU21D;51606;45.000;38.612;2023-03-02T14:32:13;4.84;57.73
65040;HTU21D;51606;45.000;38.612;2023-03-02T14:34:40;4.73;57.82
65040;HTU21D;51606;45.000;38.612;2023-03-02T14:37:14;4.61;57.92
65040;HTU21D;51606;45.000;38.612;2023-03-02T14:39:51;4.47;58.00
65040;HTU21D;51606;45.000;38.612;2023-03-02T14:42:20;4.35;58.13
65040;HTU21D;51606;45.000;38.612;2023-03-02T14:44:49;4.21;58.25
65040;HTU21D;51606;45.000;38.612;2023-03-02T14:47:16;4.07;58.34
65040;HTU21D;51606;45.000;38.612;2023-03-02T14:49:44;3.93;58.48
65040;HTU21D;51606;45.000;38.612;2023-03-02T14:52:12;3.82;58.60
65040;HTU21D;51606;45.000;38.612;2023-03-02T14:54:43;3.69;58.67
65040;HTU21D;51606;45.000;38.612;2023-03-02T14:57:20;3.56;58.75
65040;HTU21D;51606;45.000;38.612;2023-03-02T14:59:47;3.42;58.86
65040;HTU21D;51606;45.000;38.612;2023-03-02T15:02:14;3.30;58.92
65040;HTU21D;51606;45.000;38.612;2023-03-02T15:04:42;3.18;59.01
65040;HTU21D;51606;45.000;38.612;2023-03-02T15:07:12;3.01;59.12
65040;HTU21D;51606;45.000;38.612;2023-03-02T15:09:41;2.85;59.25
65040;HTU21D;51606;45.000;38.612;2023-03-02T15:12:10;2.70;59.39
65040;HTU21D;51606;45.000;38.612;2023-03-02T15:14:37;2.56;59.48
65040;HTU21D;51606;45.000;38.612;2023-03-02T15:17:04;2.45;59.54
65040;HTU21D;51606;45.000;38.612;2023-03-02T15:19:31;2.32;59.60
65040;HTU21D;51606;45.000;38.612;2023-03-02T15:21:57;2.22;59.67
65040;HTU21D;51606;45.000;38.612;2023-03-02T15:24:24;2.10;59.68
65040;HTU21D;51606;45.000;38.612;2023-03-02T15:26:51;1.99;59.75
65040;HTU21D;51606;45.000;38.612;2023-03-02T15:29:19;1.87;59.82
65040;HTU21D;51606;45.000;38.612;2023-03-02T15:31:45;1.78;59.85
65040;HTU21D;51606;45.000;38.612;2023-03-02T15:34:12;1.65;59.92
65040;HTU21D;51606;45.000;38.612;2023-03-02T15:36:39;1.51;59.99
65040;HTU21D;51606;45.000;38.612;2023-03-02T15:39:05;1.39;60.06
65040;HTU21D;51606;45.000;38.612;2023-03-02T15:41:35;1.25;60.12
65040;HTU21D;51606;45.000;38.612;2023-03-02T15:44:01;1.14;60.19
65040;HTU21D;51606;45.000;38.612;2023-03-02T15:46:27;1.04;60.23
65040;HTU21D;51606;45.000;38.612;2023-03-02T15:48:54;0.94;60.28
65040;HTU21D;51606;45.000;38.612;2023-03-02T15:51:20;0.82;60.31
65040;HTU21D;51606;45.000;38.612;2023-03-02T15:53:47;0.72;60.35
65040;HTU21D;51606;45.000;38.612;2023-03-02T15:56:15;0.63;60.39
65040;HTU21D;51606;45.000;38.612;2023-03-02T15:58:48;0.60;60.34
65040;HTU21D;51606;45.000;38.612;2023-03-02T16:01:15;0.53;60.31
65040;HTU21D;51606;45.000;38.612;2023-03-02T16:03:42;0.49;60.32
65040;HTU21D;51606;45.000;38.612;2023-03-02T16:06:10;0.46;60.30
65040;HTU21D;51606;45.000;38.612;2023-03-02T16:08:38;0.42;60.28
65040;HTU21D;51606;45.000;38.612;2023-03-02T16:11:06;0.38;60.27
65040;HTU21D;51606;45.000;38.612;2023-03-02T16:13:34;0.36;60.29
65040;HTU21D;51606;45.000;38.612;2023-03-02T16:16:02;0.36;60.20
65040;HTU21D;51606;45.000;38.612;2023-03-02T16:18:29;0.35;60.16
65040;HTU21D;51606;45.000;38.612;2023-03-02T16:20:55;0.33;60.11
65040;HTU21D;51606;45.000;38.612;2023-03-02T16:23:22;0.25;60.09
65040;HTU21D;51606;45.000;38.612;2023-03-02T16:25:48;0.19;60.18
65040;HTU21D;51606;45.000;38.612;2023-03-02T16:28:17;0.16;60.13
65040;HTU21D;51606;45.000;38.612;2023-03-02T16:30:44;0.09;60.19
65040;HTU21D;51606;45.000;38.612;2023-03-02T16:33:13;0.02;60.29
65040;HTU21D;51606;45.000;38.612;2023-03-02T16:35:40;-0.03;60.31
65040;HTU21D;51606;45.000;38.612;2023-03-02T16:38:06;-0.11;60.37
65040;HTU21D;51606;45.000;38.612;2023-03-02T16:40:36;-0.15;60.53
65040;HTU21D;51606;45.000;38.612;2023-03-02T16:43:06;-0.13;60.44
65040;HTU21D;51606;45.000;38.612;2023-03-02T16:45:34;-0.11;60.35
65040;HTU21D;51606;45.000;38.612;2023-03-02T16:48:01;-0.13;60.31
65040;HTU21D;51606;45.000;38.612;2023-03-02T16:50:27;-0.20;60.34
65040;HTU21D;51606;45.000;38.612;2023-03-02T16:52:54;-0.26;60.41
65040;HTU21D;51606;45.000;38.612;2023-03-02T16:55:20;-0.34;60.49
65040;HTU21D;51606;45.000;38.612;2023-03-02T16:57:46;-0.40;60.57
65040;HTU21D;51606;45.000;38.612;2023-03-02T17:00:15;-0.45;60.64
65040;HTU21D;51606;45.000;38.612;2023-03-02T17:02:42;-0.49;60.65
65040;HTU21D;51606;45.000;38.612;2023-03-02T17:05:10;-0.51;60.70
65040;HTU21D;51606;45.000;38.612;2023-03-02T17:07:38;-0.53;60.69
65040;HTU21D;51606;45.000;38.612;2023-03-02T17:10:05;-0.47;60.68
65040;HTU21D;51606;45.000;38.612;2023-03-02T17:12:32;-0.46;60.54
65040;HTU21D;51606;45.000;38.612;2023-03-02T17:14:58;-0.52;60.58
65040;HTU21D;51606;45.000;38.612;2023-03-02T17:17:25;-0.58;60.70
65040;HTU21D;51606;45.000;38.612;2023-03-02T17:19:51;-0.62;60.80
65040;HTU21D;51606;45.000;38.612;2023-03-02T17:22:18;-0.66;60.82
65040;HTU21D;51606;45.000;38.612;2023-03-02T17:24:44;-0.66;60.89
65040;HTU21D;51606;45.000;38.612;2023-03-02T17:27:11;-0.67;60.83
65040;HTU21D;51606;45.000;38.612;2023-03-02T17:29:37;-0.73;60.83
65040;HTU21D;51606;45.000;38.612;2023-03-02T17:32:04;-0.80;61.03
65040;HTU21D;51606;45.000;38.612;2023-03-02T17:34:30;-0.74;61.05
65040;HTU21D;51606;45.000;38.612;2023-03-02T17:36:57;-0.69;60.90
65040;HTU21D;51606;45.000;38.612;2023-03-02T17:47:25;-0.66;60.87
65040;HTU21D;51606;45.000;38.612;2023-03-02T17:49:52;-0.54;60.70
65040;HTU21D;51606;45.000;38.612;2023-03-02T17:52:21;-0.51;60.54
65040;HTU21D;51606;45.000;38.612;2023-03-02T17:54:47;-0.56;60.56
65040;HTU21D;51606;45.000;38.612;2023-03-02T17:57:14;-0.67;60.70
65040;HTU21D;51606;45.000;38.612;2023-03-02T17:59:48;-0.77;60.93
65040;HTU21D;51606;45.000;38.612;2023-03-02T18:02:16;-0.87;61.12
65040;HTU21D;51606;45.000;38.612;2023-03-02T18:04:43;-0.98;61.21
65040;HTU21D;51606;45.000;38.612;2023-03-02T18:07:11;-1.09;61.34
65040;HTU21D;51606;45.000;38.612;2023-03-02T18:09:38;-1.16;61.47
65040;HTU21D;51606;45.000;38.612;2023-03-02T18:12:05;-1.21;61.53
65040;HTU21D;51606;45.000;38.612;2023-03-02T18:14:32;-1.29;61.54
65040;HTU21D;51606;45.000;38.612;2023-03-02T18:16:59;-1.36;61.58
65040;HTU21D;51606;45.000;38.612;2023-03-02T18:19:26;-1.45;61.62
65040;HTU21D;51606;45.000;38.612;2023-03-02T18:21:52;-1.52;61.68
65040;HTU21D;51606;45.000;38.612;2023-03-02T18:24:18;-1.60;61.74
65040;HTU21D;51606;45.000;38.612;2023-03-02T18:26:45;-1.64;61.77
65040;HTU21D;51606;45.000;38.612;2023-03-02T18:29:11;-1.69;61.77
65040;HTU21D;51606;45.000;38.612;2023-03-02T18:31:38;-1.74;61.76
65040;HTU21D;51606;45.000;38.612;2023-03-02T18:34:04;-1.78;61.83
65040;HTU21D;51606;45.000;38.612;2023-03-02T18:36:31;-1.83;61.84
65040;HTU21D;51606;45.000;38.612;2023-03-02T18:38:57;-1.91;61.80
65040;HTU21D;51606;45.000;38.612;2023-03-02T18:41:24;-2.03;61.89
65040;HTU21D;51606;45.000;38.612;2023-03-02T18:43:50;-2.09;62.04
65040;HTU21D;51606;45.000;38.612;2023-03-02T18:46:20;-2.15;62.01
65040;HTU21D;51606;45.000;38.612;2023-03-02T18:48:47;-2.22;62.01
65040;HTU21D;51606;45.000;38.612;2023-03-02T18:51:16;-2.33;62.05
65040;HTU21D;51606;45.000;38.612;2023-03-02T18:53:44;-2.47;62.18
65040;HTU21D;51606;45.000;38.612;2023-03-02T18:56:10;-2.62;62.36
65040;HTU21D;51606;45.000;38.612;2023-03-02T18:58:37;-2.76;62.52
65040;HTU21D;51606;45.000;38.612;2023-03-02T19:01:04;-2.89;62.64
65040;HTU21D;51606;45.000;38.612;2023-03-02T19:03:31;-2.97;62.73
65040;HTU21D;51606;45.000;38.612;2023-03-02T19:06:00;-3.07;62.80
65040;HTU21D;51606;45.000;38.612;2023-03-02T19:08:26;-3.15;62.86
65040;HTU21D;51606;45.000;38.612;2023-03-02T19:10:54;-3.20;62.86
65040;HTU21D;51606;45.000;38.612;2023-03-02T19:13:20;-3.23;62.85
65040;HTU21D;51606;45.000;38.612;2023-03-02T19:15:47;-3.27;62.86
65040;HTU21D;51606;45.000;38.612;2023-03-02T19:18:18;-3.30;62.82
65040;HTU21D;51606;45.000;38.612;2023-03-02T19:20:46;-3.34;62.81
